Time;durP1;ratioP1;P1;durP2;ratioP2;P2;SDS_P1;SDS_P2;PMS_P1;PMS_P2;Temp;Humidity;BMP_temperature;BMP_pressure;BME280_temperature;BME280_humidity;BME280_pressure;Samples;Min_cycle;Max_cycle;Signal;HPM_P1;HPM_P2
2021/08/03 00:01:03;;;;;;;;;;;;;;;27.56;44.44;100239.19;1744762;80;20488;-51
2021/08/03 00:03:38;;;;;;;;;;;;;;;27.55;44.38;100236.17;1752587;80;20794;-51
2021/08/03 00:06:17;;;;;;;;;;;;;;;27.52;44.31;100243.92;1748240;80;20222;-53
2021/08/03 00:08:55;;;;;;;;;;;;;;;27.50;44.24;100244.06;1748850;80;21317;-51
2021/08/03 00:11:21;;;;;;;;;;;;;;;27.46;44.14;100250.98;1741476;80;20226;-50
2021/08/03 00:13:47;;;;;;;;;;;;;;;27.45;44.06;100252.77;1749363;80;20253;-49
2021/08/03 00:16:13;;;;;;;;;;;;;;;27.43;44.01;100255.13;1750899;80;20175;-52
2021/08/03 00:18:40;;;;;;;;;;;;;;;27.41;43.94;100255.52;1752878;80;20192;-49
2021/08/03 00:21:07;;;;;;;;;;;;;;;27.39;43.87;100259.85;1748328;79;21147;-51
2021/08/03 00:23:39;;;;;;;;;;;;;;;27.37;43.82;100265.03;1742133;80;20204;-52
2021/08/03 00:26:05;;;;;;;;;;;;;;;27.35;43.77;100264.00;1747402;80;20449;-48
2021/08/03 00:28:31;;;;;;;;;;;;;;;27.33;43.68;100266.97;1759002;80;20692;-51
2021/08/03 00:30:57;;;;;;;;;;;;;;;27.32;43.64;100266.74;1753511;80;20259;-48
2021/08/03 00:33:23;;;;;;;;;;;;;;;27.30;43.55;100268.50;1748901;80;21175;-49
2021/08/03 00:35:49;;;;;;;;;;;;;;;27.28;43.49;100267.28;1750084;80;20316;-50
2021/08/03 00:38:16;;;;;;;;;;;;;;;27.27;43.44;100266.47;1746738;80;20186;-49
2021/08/03 00:40:52;;;;;;;;;;;;;;;27.25;43.35;100276.61;1747792;80;20208;-52
2021/08/03 00:43:18;;;;;;;;;;;;;;;27.24;43.30;100272.81;1748927;80;20503;-50
2021/08/03 00:45:43;;;;;;;;;;;;;;;27.22;43.22;100269.58;1744300;80;22359;-51
2021/08/03 00:48:10;;;;;;;;;;;;;;;27.21;43.16;100274.94;1747697;80;20274;-51
2021/08/03 00:50:36;;;;;;;;;;;;;;;27.19;43.08;100274.53;1760580;80;20468;-53
2021/08/03 00:53:02;;;;;;;;;;;;;;;27.16;43.05;100275.26;1745436;80;22176;-53
2021/08/03 00:55:28;;;;;;;;;;;;;;;27.15;42.99;100278.67;1752421;80;20178;-51
2021/08/03 00:57:54;;;;;;;;;;;;;;;27.15;42.92;100282.05;1746397;80;21074;-51
2021/08/03 01:00:20;;;;;;;;;;;;;;;27.13;42.86;100277.41;1761057;80;20281;-50
2021/08/03 01:02:46;;;;;;;;;;;;;;;27.11;42.80;100275.02;1754274;80;21473;-48
2021/08/03 01:05:12;;;;;;;;;;;;;;;27.11;42.75;100285.38;1749345;80;20695;-51
2021/08/03 01:07:51;;;;;;;;;;;;;;;27.08;42.66;100275.73;1750136;80;20203;-51
2021/08/03 01:10:29;;;;;;;;;;;;;;;27.07;42.63;100280.32;1753864;80;21234;-51
2021/08/03 01:13:13;;;;;;;;;;;;;;;27.05;42.55;100275.69;1751485;80;20482;-52
2021/08/03 01:15:48;;;;;;;;;;;;;;;27.04;42.51;100276.86;1729329;80;20434;-51
2021/08/03 01:18:17;;;;;;;;;;;;;;;27.03;42.43;100280.86;1749219;79;20995;-54
2021/08/03 01:20:59;;;;;;;;;;;;;;;27.02;42.40;100282.03;1751082;80;20216;-53
2021/08/03 01:24:01;;;;;;;;;;;;;;;27.00;42.31;100279.59;1750986;80;21299;-52
2021/08/03 01:26:31;;;;;;;;;;;;;;;26.98;42.26;100274.19;1749995;80;20173;-51
2021/08/03 01:28:59;;;;;;;;;;;;;;;26.96;42.19;100275.94;1745573;80;20170;-52
2021/08/03 01:31:27;;;;;;;;;;;;;;;26.94;42.13;100276.92;1754189;80;20427;-51
2021/08/03 01:34:05;;;;;;;;;;;;;;;26.93;42.09;100273.91;1744189;80;20141;-52
2021/08/03 01:36:34;;;;;;;;;;;;;;;26.91;42.04;100270.67;1738751;80;21183;-52
2021/08/03 01:39:01;;;;;;;;;;;;;;;26.90;42.01;100271.88;1747639;80;20420;-51
2021/08/03 01:41:27;;;;;;;;;;;;;;;26.88;41.98;100274.22;1738787;80;20136;-52
2021/08/03 01:43:53;;;;;;;;;;;;;;;26.88;41.93;100279.80;1753171;80;20175;-51
2021/08/03 01:46:19;;;;;;;;;;;;;;;26.87;41.87;100273.18;1748562;80;20178;-52
2021/08/03 01:48:47;;;;;;;;;;;;;;;26.85;41.84;100270.78;1758637;80;21152;-51
2021/08/03 01:51:14;;;;;;;;;;;;;;;26.84;41.79;100276.11;1751395;80;20172;-52
2021/08/03 01:53:40;;;;;;;;;;;;;;;26.84;41.75;100280.30;1746468;80;20247;-52
2021/08/03 01:56:06;;;;;;;;;;;;;;;26.82;41.71;100282.05;1750694;80;20764;-52
2021/08/03 01:58:32;;;;;;;;;;;;;;;26.82;41.67;100282.05;1754729;80;20251;-52
2021/08/03 02:00:58;;;;;;;;;;;;;;;26.80;41.62;100284.43;1757090;80;21233;-52
2021/08/03 02:03:24;;;;;;;;;;;;;;;26.79;41.58;100281.41;1746255;80;20163;-52
2021/08/03 02:05:51;;;;;;;;;;;;;;;26.78;41.53;100274.80;1748917;80;20387;-50
2021/08/03 02:08:20;;;;;;;;;;;;;;;26.77;41.51;100282.39;1752614;80;20113;-51
2021/08/03 02:10:46;;;;;;;;;;;;;;;26.77;41.46;100286.58;1753189;80;20129;-50
2021/08/03 02:13:12;;;;;;;;;;;;;;;26.76;41.41;100286.35;1752258;80;21216;-49
2021/08/03 02:15:39;;;;;;;;;;;;;;;26.75;41.38;100287.52;1735897;80;20148;-49
2021/08/03 02:18:05;;;;;;;;;;;;;;;26.75;41.33;100286.71;1747544;80;20188;-52
2021/08/03 02:20:31;;;;;;;;;;;;;;;26.74;41.28;100287.30;1755222;80;20165;-52
2021/08/03 02:22:56;;;;;;;;;;;;;;;26.72;41.25;100290.25;1746929;80;20765;-50
2021/08/03 02:25:22;;;;;;;;;;;;;;;26.72;41.22;100293.05;1742367;80;21903;-52
2021/08/03 02:27:48;;;;;;;;;;;;;;;26.70;41.18;100288.41;1754726;80;20195;-50
2021/08/03 02:30:14;;;;;;;;;;;;;;;26.69;41.15;100294.58;1755905;80;20266;-48
2021/08/03 02:32:47;;;;;;;;;;;;;;;26.68;41.11;100295.78;1747884;80;20473;-49
2021/08/03 02:35:16;;;;;;;;;;;;;;;26.68;41.08;100296.36;1750575;80;20427;-50
2021/08/03 02:37:45;;;;;;;;;;;;;;;26.67;41.04;100305.91;1746265;80;21066;-48
2021/08/03 02:40:11;;;;;;;;;;;;;;;26.65;41.01;100311.06;1749795;80;20133;-48
2021/08/03 02:42:38;;;;;;;;;;;;;;;26.65;40.95;100315.25;1716633;81;20520;-50
2021/08/03 02:45:05;;;;;;;;;;;;;;;26.64;40.93;100310.84;1750693;80;20222;-52
2021/08/03 02:47:47;;;;;;;;;;;;;;;26.63;40.90;100310.61;1750587;80;20452;-49
2021/08/03 02:50:06;;;;;;;;;;;;;;;26.62;40.87;100312.59;1749572;80;20989;-50
2021/08/03 02:52:34;;;;;;;;;;;;;;;26.61;40.83;100314.34;1745503;80;20542;-49
2021/08/03 02:55:04;;;;;;;;;;;;;;;26.61;40.79;100319.93;1747728;80;20499;-48
2021/08/03 02:57:30;;;;;;;;;;;;;;;26.59;40.75;100323.11;1752023;80;21097;-50
2021/08/03 02:59:58;;;;;;;;;;;;;;;26.58;40.76;100322.07;1747349;80;20822;-50
2021/08/03 03:02:24;;;;;;;;;;;;;;;26.56;40.71;100326.65;1751553;80;21079;-51
2021/08/03 03:04:54;;;;;;;;;;;;;;;26.56;40.67;100334.20;1749250;80;20198;-49
2021/08/03 03:07:26;;;;;;;;;;;;;;;26.54;40.63;100337.36;1748182;80;20439;-51
2021/08/03 03:09:53;;;;;;;;;;;;;;;26.54;40.61;100344.91;1704271;83;20209;-50
2021/08/03 03:12:19;;;;;;;;;;;;;;;26.53;40.56;100341.31;1751393;80;20396;-50
2021/08/03 03:14:45;;;;;;;;;;;;;;;26.53;40.55;100346.08;1748546;80;20960;-51
2021/08/03 03:17:11;;;;;;;;;;;;;;;26.51;40.50;100350.66;1752107;80;20210;-50
2021/08/03 03:19:37;;;;;;;;;;;;;;;26.51;40.48;100355.42;1749614;80;20243;-51
2021/08/03 03:22:04;;;;;;;;;;;;;;;26.50;40.46;100359.38;1748115;80;20285;-51
2021/08/03 03:24:31;;;;;;;;;;;;;;;26.48;40.43;100352.77;1748046;80;20233;-52
2021/08/03 03:26:57;;;;;;;;;;;;;;;26.48;40.42;100365.32;1752192;80;21304;-52
2021/08/03 03:29:22;;;;;;;;;;;;;;;26.47;40.38;100373.49;1731307;81;20746;-51
2021/08/03 03:31:48;;;;;;;;;;;;;;;26.48;40.33;100385.47;1755519;80;20268;-51
2021/08/03 03:34:14;;;;;;;;;;;;;;;26.46;40.32;100389.19;1750139;80;20229;-51
2021/08/03 03:36:40;;;;;;;;;;;;;;;26.46;40.27;100395.58;1755897;80;20237;-52
2021/08/03 03:39:06;;;;;;;;;;;;;;;26.43;40.24;100389.94;1735455;80;23144;-50
2021/08/03 03:41:39;;;;;;;;;;;;;;;26.44;40.22;100407.68;1727534;80;20378;-49
2021/08/03 03:44:05;;;;;;;;;;;;;;;26.44;40.20;100406.28;1756943;80;20154;-52
2021/08/03 03:46:34;;;;;;;;;;;;;;;26.43;40.15;100399.70;1756155;80;20131;-52
2021/08/03 03:49:03;;;;;;;;;;;;;;;26.42;40.14;100404.47;1728075;82;20211;-52
2021/08/03 03:51:29;;;;;;;;;;;;;;;26.42;40.09;100408.65;1732095;80;21249;-50
2021/08/03 03:54:01;;;;;;;;;;;;;;;26.41;40.08;100412.61;1751175;80;20243;-48
2021/08/03 03:56:30;;;;;;;;;;;;;;;26.40;40.06;100408.19;1750153;80;20454;-48
2021/08/03 03:58:58;;;;;;;;;;;;;;;26.40;40.04;100411.56;1755071;80;20215;-51
2021/08/03 04:01:25;;;;;;;;;;;;;;;26.40;40.02;100414.36;1752798;80;20197;-51
2021/08/03 04:03:51;;;;;;;;;;;;;;;26.38;39.99;100421.72;1752588;80;21856;-57
2021/08/03 04:06:17;;;;;;;;;;;;;;;26.37;39.97;100438.22;1751757;80;20181;-50
2021/08/03 04:08:43;;;;;;;;;;;;;;;26.37;39.95;100445.20;1752912;80;20147;-48
2021/08/03 04:11:14;;;;;;;;;;;;;;;26.35;39.92;100453.14;1756301;80;20486;-51
2021/08/03 04:13:37;;;;;;;;;;;;;;;26.34;39.92;100474.64;1751661;80;20131;-50
2021/08/03 04:16:04;;;;;;;;;;;;;;;26.33;39.90;100481.97;1755461;80;21180;-48
2021/08/03 04:18:30;;;;;;;;;;;;;;;26.32;39.89;100492.31;1752039;80;20198;-50
2021/08/03 04:20:56;;;;;;;;;;;;;;;26.33;39.89;100500.09;1750985;80;20717;-47
2021/08/03 04:23:22;;;;;;;;;;;;;;;26.33;39.86;100504.28;1750750;80;20177;-48
2021/08/03 04:25:48;;;;;;;;;;;;;;;26.33;39.82;100502.89;1758910;80;20408;-51
2021/08/03 04:28:14;;;;;;;;;;;;;;;26.32;39.80;100489.52;1760954;80;21116;-51
2021/08/03 04:30:40;;;;;;;;;;;;;;;26.32;39.78;100492.89;1759110;80;20146;-49
2021/08/03 04:33:06;;;;;;;;;;;;;;;26.31;39.76;100490.69;1758921;80;20820;-52
2021/08/03 04:35:31;;;;;;;;;;;;;;;26.31;39.74;100503.82;1759832;80;20285;-52
2021/08/03 04:37:57;;;;;;;;;;;;;;;26.29;39.72;100506.98;1758306;80;20302;-58
2021/08/03 04:40:23;;;;;;;;;;;;;;;26.30;39.70;100494.67;1757415;80;21160;-53
2021/08/03 04:42:50;;;;;;;;;;;;;;;26.29;39.65;100497.23;1754811;80;20421;-49
2021/08/03 04:45:15;;;;;;;;;;;;;;;26.29;39.64;100497.81;1760510;80;20247;-51
2021/08/03 04:47:49;;;;;;;;;;;;;;;26.29;39.64;100492.23;1757585;80;20230;-48
2021/08/03 04:50:17;;;;;;;;;;;;;;;26.27;39.60;100488.41;1751880;80;20236;-52
2021/08/03 04:52:44;;;;;;;;;;;;;;;26.27;39.58;100487.59;1766084;80;21455;-50
2021/08/03 04:55:11;;;;;;;;;;;;;;;26.26;39.58;100490.99;1765171;80;20222;-50
2021/08/03 04:57:37;;;;;;;;;;;;;;;26.25;39.54;100489.95;1754779;80;20148;-52
2021/08/03 05:00:07;;;;;;;;;;;;;;;26.25;39.53;100487.98;1756421;80;20195;-53
2021/08/03 05:02:33;;;;;;;;;;;;;;;26.23;39.53;100492.28;1756617;80;20486;-49
2021/08/03 05:04:59;;;;;;;;;;;;;;;26.22;39.48;100494.29;1756591;80;21250;-51
2021/08/03 05:07:25;;;;;;;;;;;;;;;26.22;39.47;100499.87;1762329;80;20758;-55
2021/08/03 05:09:51;;;;;;;;;;;;;;;26.21;39.44;100506.61;1757767;80;20315;-49
2021/08/03 05:12:17;;;;;;;;;;;;;;;26.21;39.47;100509.40;1757002;80;20283;-48
2021/08/03 05:14:43;;;;;;;;;;;;;;;26.26;39.49;100522.25;1761665;80;20192;-48
2021/08/03 05:17:09;;;;;;;;;;;;;;;26.30;39.54;100527.33;1753395;80;21176;-48
2021/08/03 05:19:35;;;;;;;;;;;;;;;26.35;39.56;100531.23;1726001;81;20188;-51
2021/08/03 05:22:01;;;;;;;;;;;;;;;26.40;39.57;100535.70;1715988;81;20760;-50
2021/08/03 05:24:27;;;;;;;;;;;;;;;26.45;39.59;100536.81;1727898;81;20195;-55
2021/08/03 05:26:54;;;;;;;;;;;;;;;26.51;39.63;100542.34;1718340;81;20547;-49
2021/08/03 05:29:20;;;;;;;;;;;;;;;26.55;39.65;100548.81;1743560;80;20986;-47
2021/08/03 05:31:46;;;;;;;;;;;;;;;26.58;39.70;100546.10;1760259;80;20265;-48
2021/08/03 05:34:12;;;;;;;;;;;;;;;26.64;39.71;100556.40;1754568;80;20248;-48
2021/08/03 05:36:39;;;;;;;;;;;;;;;26.66;39.74;100548.45;1745904;80;20358;-56
2021/08/03 05:39:06;;;;;;;;;;;;;;;26.70;39.79;100553.53;1748762;80;20207;-53
2021/08/03 05:41:33;;;;;;;;;;;;;;;26.74;39.81;100552.44;1760747;80;21093;-49
2021/08/03 05:43:59;;;;;;;;;;;;;;;26.77;39.86;100557.30;1749572;80;20373;-49
2021/08/03 05:46:24;;;;;;;;;;;;;;;26.81;39.90;100553.19;1736701;80;20222;-49
2021/08/03 05:48:50;;;;;;;;;;;;;;;26.85;39.96;100549.11;1722052;82;20268;-52
2021/08/03 05:51:16;;;;;;;;;;;;;;;26.87;40.01;100556.51;1719758;82;20215;-50
2021/08/03 05:53:42;;;;;;;;;;;;;;;26.85;40.04;100561.66;1713633;82;21022;-48
2021/08/03 05:56:08;;;;;;;;;;;;;;;26.82;40.11;100563.16;1719760;82;20300;-52
2021/08/03 05:58:34;;;;;;;;;;;;;;;26.78;40.15;100560.88;1711205;82;20278;-50
2021/08/03 06:01:00;;;;;;;;;;;;;;;26.76;40.20;100566.03;1714918;82;22231;-51
2021/08/03 06:03:26;;;;;;;;;;;;;;;26.75;40.25;100564.41;1717736;82;20220;-48
2021/08/03 06:05:52;;;;;;;;;;;;;;;26.74;40.27;100559.41;1711959;82;21137;-51
2021/08/03 06:08:23;;;;;;;;;;;;;;;26.73;40.26;100570.34;1708732;82;20246;-55
2021/08/03 06:10:51;;;;;;;;;;;;;;;26.72;40.25;100565.15;1720069;82;20169;-54
2021/08/03 06:13:17;;;;;;;;;;;;;;;26.70;40.33;100569.69;1715499;82;20478;-54
2021/08/03 06:15:43;;;;;;;;;;;;;;;26.71;40.37;100569.11;1713369;82;20125;-54
2021/08/03 06:18:30;;;;;;;;;;;;;;;26.71;40.40;100571.89;1717692;82;21242;-55
2021/08/03 06:20:57;;;;;;;;;;;;;;;26.70;40.39;100576.66;1716777;82;20212;-55
2021/08/03 06:23:23;;;;;;;;;;;;;;;26.70;40.38;100579.45;1717752;82;20171;-55
2021/08/03 06:25:49;;;;;;;;;;;;;;;26.69;40.34;100579.23;1719570;82;20227;-55
2021/08/03 06:28:17;;;;;;;;;;;;;;;26.69;40.34;100589.61;1712575;82;20478;-55
2021/08/03 06:30:43;;;;;;;;;;;;;;;26.69;40.32;100581.23;1718041;82;21070;-56
2021/08/03 06:33:08;;;;;;;;;;;;;;;26.68;40.28;100582.40;1718465;82;20195;-55
2021/08/03 06:35:34;;;;;;;;;;;;;;;26.67;40.25;100593.33;1718157;82;20238;-57
2021/08/03 06:38:03;;;;;;;;;;;;;;;26.67;40.22;100587.75;1716409;82;20696;-54
2021/08/03 06:40:29;;;;;;;;;;;;;;;26.65;40.15;100586.71;1715104;82;20209;-56
2021/08/03 06:43:06;;;;;;;;;;;;;;;26.62;40.06;100594.42;1717849;82;21080;-55
2021/08/03 06:45:32;;;;;;;;;;;;;;;26.58;39.95;100599.70;1719150;81;20513;-54
2021/08/03 06:48:06;;;;;;;;;;;;;;;26.54;39.88;100597.41;1748384;80;20455;-55
2021/08/03 06:50:35;;;;;;;;;;;;;;;26.50;39.84;100597.33;1751369;80;20241;-54
2021/08/03 06:53:03;;;;;;;;;;;;;;;26.45;39.75;100601.79;1746343;80;20233;-55
2021/08/03 06:55:30;;;;;;;;;;;;;;;26.42;39.71;100596.13;1730389;80;21093;-56
2021/08/03 06:58:02;;;;;;;;;;;;;;;26.38;39.66;100601.62;1751409;80;20689;-55
2021/08/03 07:00:36;;;;;;;;;;;;;;;26.35;39.61;100596.78;1749773;80;20502;-55
2021/08/03 07:03:03;;;;;;;;;;;;;;;26.32;39.57;100603.88;1741389;80;20205;-55
2021/08/03 07:05:29;;;;;;;;;;;;;;;26.28;39.52;100600.19;1752170;80;20613;-55
2021/08/03 07:07:57;;;;;;;;;;;;;;;26.25;39.48;100602.31;1750681;80;21202;-55
2021/08/03 07:10:23;;;;;;;;;;;;;;;26.22;39.43;100607.23;1755988;80;20228;-55
2021/08/03 07:12:50;;;;;;;;;;;;;;;26.19;39.39;100612.08;1751264;80;20226;-55
2021/08/03 07:15:16;;;;;;;;;;;;;;;26.19;39.36;100609.87;1750916;80;20192;-55
2021/08/03 07:17:42;;;;;;;;;;;;;;;26.16;39.31;100614.78;1753249;80;20225;-54
2021/08/03 07:20:11;;;;;;;;;;;;;;;26.13;39.27;100610.75;1748371;80;21134;-54
2021/08/03 07:22:38;;;;;;;;;;;;;;;26.12;39.21;100612.50;1753829;80;20436;-54
2021/08/03 07:25:05;;;;;;;;;;;;;;;26.09;39.17;100615.43;1746465;80;20214;-56
2021/08/03 07:27:31;;;;;;;;;;;;;;;26.08;39.14;100617.98;1756665;80;20922;-55
2021/08/03 07:29:57;;;;;;;;;;;;;;;26.06;39.09;100612.52;1749219;80;20739;-55
2021/08/03 07:32:23;;;;;;;;;;;;;;;26.03;39.02;100609.07;1740248;80;21960;-54
2021/08/03 07:34:49;;;;;;;;;;;;;;;26.01;39.03;100619.20;1751494;80;21598;-54
2021/08/03 07:37:15;;;;;;;;;;;;;;;25.99;39.00;100620.14;1753051;80;20234;-55
2021/08/03 07:39:42;;;;;;;;;;;;;;;25.98;38.97;100619.91;1752740;80;20794;-56
2021/08/03 07:42:08;;;;;;;;;;;;;;;25.98;38.91;100624.66;1748921;80;20198;-55
2021/08/03 07:44:34;;;;;;;;;;;;;;;25.96;38.89;100621.44;1747494;80;21880;-56
2021/08/03 07:47:00;;;;;;;;;;;;;;;25.95;38.84;100622.60;1751137;80;20250;-55
2021/08/03 07:49:26;;;;;;;;;;;;;;;25.93;38.79;100627.74;1746514;80;20214;-55
2021/08/03 07:51:52;;;;;;;;;;;;;;;25.91;38.75;100633.66;1749396;80;20173;-55
2021/08/03 07:54:19;;;;;;;;;;;;;;;25.88;38.72;100631.02;1748147;80;20214;-54
2021/08/03 07:56:45;;;;;;;;;;;;;;;25.87;38.68;100629.39;1748025;80;21069;-55
2021/08/03 07:59:11;;;;;;;;;;;;;;;25.85;38.65;100633.11;1749991;80;20303;-55
2021/08/03 08:01:37;;;;;;;;;;;;;;;25.85;38.63;100636.47;1749145;80;20200;-55
2021/08/03 08:04:03;;;;;;;;;;;;;;;25.82;38.59;100632.44;1751737;80;21326;-55
2021/08/03 08:06:30;;;;;;;;;;;;;;;25.82;38.56;100638.59;1752958;80;20200;-54
2021/08/03 08:08:56;;;;;;;;;;;;;;;25.80;38.52;100638.94;1748333;80;21121;-56
2021/08/03 08:11:22;;;;;;;;;;;;;;;25.79;38.47;100635.95;1747367;80;20223;-54
2021/08/03 08:13:47;;;;;;;;;;;;;;;25.77;38.43;100635.48;1751958;80;20504;-56
2021/08/03 08:16:13;;;;;;;;;;;;;;;25.77;38.41;100637.45;1750547;80;21015;-57
2021/08/03 08:18:39;;;;;;;;;;;;;;;25.77;38.40;100631.30;1750217;80;21360;-55
2021/08/03 08:21:06;;;;;;;;;;;;;;;25.77;38.35;100626.30;1752975;80;23344;-55
2021/08/03 08:23:32;;;;;;;;;;;;;;;25.76;38.31;100620.50;1752064;80;20600;-55
2021/08/03 08:25:58;;;;;;;;;;;;;;;25.74;38.28;100625.63;1754444;80;20222;-55
2021/08/03 08:28:25;;;;;;;;;;;;;;;25.72;38.26;100625.98;1740947;80;20169;-55
2021/08/03 08:30:52;;;;;;;;;;;;;;;25.71;38.24;100624.96;1748086;80;20233;-55
2021/08/03 08:33:18;;;;;;;;;;;;;;;25.70;38.21;100629.72;1750974;80;21238;-56
2021/08/03 08:35:44;;;;;;;;;;;;;;;25.69;38.18;100622.52;1747570;80;20172;-54
2021/08/03 08:38:10;;;;;;;;;;;;;;;25.67;38.15;100631.84;1751430;80;20183;-55
2021/08/03 08:40:36;;;;;;;;;;;;;;;25.67;38.13;100629.05;1749463;80;20268;-54
2021/08/03 08:43:03;;;;;;;;;;;;;;;25.67;38.12;100627.66;1746925;80;20249;-55
2021/08/03 08:45:30;;;;;;;;;;;;;;;25.67;38.13;100641.59;1754748;80;21186;-55
2021/08/03 08:47:56;;;;;;;;;;;;;;;25.72;38.15;100635.73;1746441;80;20291;-54
2021/08/03 08:50:23;;;;;;;;;;;;;;;25.80;38.16;100625.61;1748348;80;20842;-55
2021/08/03 08:52:52;;;;;;;;;;;;;;;25.87;38.17;100621.03;1749612;80;20179;-56
2021/08/03 08:55:17;;;;;;;;;;;;;;;25.95;38.18;100633.75;1753363;80;20182;-56
2021/08/03 08:57:46;;;;;;;;;;;;;;;26.02;38.21;100631.95;1749141;80;21055;-53
2021/08/03 09:00:12;;;;;;;;;;;;;;;26.08;38.19;100622.75;1757923;80;20213;-55
2021/08/03 09:02:39;;;;;;;;;;;;;;;26.14;38.22;100628.30;1749798;80;20159;-55
2021/08/03 09:05:07;;;;;;;;;;;;;;;26.19;38.22;100621.84;1747664;80;22038;-55
2021/08/03 09:07:37;;;;;;;;;;;;;;;26.25;38.23;100609.87;1754515;80;20542;-55
2021/08/03 09:10:03;;;;;;;;;;;;;;;26.31;38.24;100607.02;1737700;80;20646;-54
2021/08/03 09:12:33;;;;;;;;;;;;;;;26.36;38.28;100610.34;1752679;80;20158;-55
2021/08/03 09:14:59;;;;;;;;;;;;;;;26.40;38.37;100605.44;1749694;80;20209;-55
2021/08/03 09:17:27;;;;;;;;;;;;;;;26.46;38.46;100619.34;1751021;80;20470;-55
2021/08/03 09:19:53;;;;;;;;;;;;;;;26.51;38.54;100626.86;1748348;80;20139;-54
2021/08/03 09:22:24;;;;;;;;;;;;;;;26.56;38.63;100639.14;1726826;81;21114;-54
2021/08/03 09:25:11;;;;;;;;;;;;;;;26.62;38.72;100636.86;1751553;80;20231;-55
2021/08/03 09:27:39;;;;;;;;;;;;;;;26.65;38.84;100632.75;1758128;80;20208;-55
2021/08/03 09:30:07;;;;;;;;;;;;;;;26.66;38.92;100634.97;1749096;80;20210;-54
2021/08/03 09:32:35;;;;;;;;;;;;;;;26.67;38.96;100632.41;1758067;80;20469;-54
2021/08/03 09:35:12;;;;;;;;;;;;;;;26.66;39.02;100630.78;1748575;80;21019;-55
2021/08/03 09:37:39;;;;;;;;;;;;;;;26.65;39.05;100622.98;1713519;82;20266;-54
2021/08/03 09:40:07;;;;;;;;;;;;;;;26.67;39.15;100622.63;1715331;81;20621;-54
2021/08/03 09:42:34;;;;;;;;;;;;;;;26.71;39.18;100624.92;1685144;83;20834;-54
2021/08/03 09:45:02;;;;;;;;;;;;;;;26.74;39.23;100622.79;1689816;83;20223;-55
2021/08/03 09:47:29;;;;;;;;;;;;;;;26.77;39.30;100619.30;1716317;82;21128;-55
2021/08/03 09:49:57;;;;;;;;;;;;;;;26.81;39.32;100616.00;1725243;81;20175;-56
2021/08/03 09:52:24;;;;;;;;;;;;;;;26.86;39.36;100617.14;1738986;80;20146;-54
2021/08/03 09:54:50;;;;;;;;;;;;;;;26.90;39.42;100621.41;1738950;80;20206;-55
2021/08/03 09:57:20;;;;;;;;;;;;;;;26.91;39.41;100607.06;1724693;80;20153;-55
2021/08/03 09:59:46;;;;;;;;;;;;;;;26.94;39.47;100616.13;1739816;80;21305;-54
2021/08/03 10:02:15;;;;;;;;;;;;;;;26.97;39.51;100613.98;1741431;80;20472;-56
2021/08/03 10:04:43;;;;;;;;;;;;;;;27.01;39.56;100619.06;1741390;80;20969;-55
2021/08/03 10:07:09;;;;;;;;;;;;;;;27.04;39.57;100617.51;1738680;80;20864;-55
2021/08/03 10:09:35;;;;;;;;;;;;;;;27.07;39.60;100616.80;1747511;80;20216;-55
2021/08/03 10:12:01;;;;;;;;;;;;;;;27.09;39.66;100615.25;1725352;81;21865;-55
2021/08/03 10:14:27;;;;;;;;;;;;;;;27.12;39.70;100615.09;1742892;80;20214;-55
2021/08/03 10:16:53;;;;;;;;;;;;;;;27.15;39.74;100604.02;1742344;80;20187;-55
2021/08/03 10:19:25;;;;;;;;;;;;;;;27.18;39.74;100608.86;1743478;80;20209;-55
2021/08/03 10:21:57;;;;;;;;;;;;;;;27.22;39.76;100602.75;1740747;80;20204;-55
2021/08/03 10:24:27;;;;;;;;;;;;;;;27.25;39.82;100599.22;1737901;80;21084;-54
2021/08/03 10:26:59;;;;;;;;;;;;;;;27.28;39.85;100599.87;1745754;80;20286;-55
2021/08/03 10:29:26;;;;;;;;;;;;;;;27.32;39.87;100603.34;1741174;80;20194;-56
2021/08/03 10:31:52;;;;;;;;;;;;;;;27.36;39.89;100600.03;1741768;80;20234;-54
2021/08/03 10:34:45;;;;;;;;;;;;;;;27.38;39.93;100585.91;1736359;80;20223;-55
2021/08/03 10:37:11;;;;;;;;;;;;;;;27.40;39.96;100580.77;1739927;80;21960;-54
2021/08/03 10:39:54;;;;;;;;;;;;;;;27.43;40.00;100576.42;1737116;80;21619;-55
2021/08/03 10:42:21;;;;;;;;;;;;;;;27.43;40.02;100570.83;1742738;80;20182;-40
2021/08/03 10:44:52;;;;;;;;;;;;;;;27.47;40.06;100566.96;1743747;80;20755;-39
2021/08/03 10:47:34;;;;;;;;;;;;;;;27.51;40.07;100560.03;1739647;80;20765;-39
2021/08/03 10:50:06;;;;;;;;;;;;;;;27.52;40.03;100563.87;1754877;80;21180;-39
2021/08/03 10:52:51;;;;;;;;;;;;;;;27.51;39.98;100569.23;1750831;80;20180;-38
2021/08/03 10:55:40;;;;;;;;;;;;;;;27.49;39.96;100570.20;1751548;80;20204;-40
2021/08/03 10:58:13;;;;;;;;;;;;;;;27.46;39.91;100564.49;1751952;80;20414;-39
2021/08/03 11:00:47;;;;;;;;;;;;;;;27.45;39.88;100558.71;1750101;80;20326;-40
2021/08/03 11:03:37;;;;;;;;;;;;;;;27.43;39.86;100545.69;1753148;80;21128;-40
2021/08/03 11:06:09;;;;;;;;;;;;;;;27.42;39.83;100545.45;1748042;80;20614;-40
2021/08/03 11:08:41;;;;;;;;;;;;;;;27.39;39.91;100540.62;1749975;80;20232;-40
2021/08/03 11:11:21;;;;;;;;;;;;;;;27.39;39.96;100538.64;1758325;80;20198;-40
2021/08/03 11:13:54;;;;;;;;;;;;;;;27.38;39.96;100532.02;1749827;80;20466;-40
2021/08/03 11:16:27;;;;;;;;;;;;;;;27.38;39.96;100521.65;1752871;80;21190;-40
2021/08/03 11:18:58;;;;;;;;;;;;;;;27.38;39.94;100521.65;1750265;80;20301;-40
2021/08/03 11:21:25;;;;;;;;;;;;;;;27.38;39.93;100518.86;1754706;80;20215;-39
2021/08/03 11:24:04;;;;;;;;;;;;;;;27.38;39.87;100523.05;1757935;80;20250;-40
2021/08/03 11:26:50;;;;;;;;;;;;;;;27.38;39.85;100525.03;1752668;80;20190;-40
2021/08/03 11:29:17;;;;;;;;;;;;;;;27.38;39.81;100530.61;1729877;80;23219;-40
2021/08/03 11:31:56;;;;;;;;;;;;;;;27.36;39.75;100533.80;1751611;80;20168;-40
2021/08/03 11:34:31;;;;;;;;;;;;;;;27.37;39.71;100531.81;1707051;82;20226;-40
2021/08/03 11:37:15;;;;;;;;;;;;;;;27.35;39.63;100532.17;1708365;82;20441;-40
2021/08/03 11:39:55;;;;;;;;;;;;;;;27.31;39.47;100528.51;1694001;82;20526;-39
2021/08/03 11:42:33;;;;;;;;;;;;;;;27.28;39.37;100518.09;1689869;82;21102;-40
2021/08/03 11:45:08;;;;;;;;;;;;;;;27.25;39.30;100511.81;1689936;82;20181;-40
2021/08/03 11:47:47;;;;;;;;;;;;;;;27.22;39.22;100509.77;1689608;82;20514;-39
2021/08/03 11:50:15;;;;;;;;;;;;;;;27.20;39.16;100512.14;1722180;82;20191;-40
2021/08/03 11:52:40;;;;;;;;;;;;;;;27.20;39.07;100505.94;1717704;82;20557;-40
2021/08/03 11:55:08;;;;;;;;;;;;;;;27.18;38.99;100512.50;1723750;82;21101;-40
2021/08/03 11:57:37;;;;;;;;;;;;;;;27.18;38.92;100507.50;1719753;82;20144;-40
2021/08/03 12:00:15;;;;;;;;;;;;;;;27.18;38.85;100503.31;1721144;82;20165;-40
2021/08/03 12:02:43;;;;;;;;;;;;;;;27.17;38.78;100506.69;1716318;82;20157;-40
2021/08/03 12:05:14;;;;;;;;;;;;;;;27.16;38.68;100509.25;1729459;82;20413;-40
2021/08/03 12:07:52;;;;;;;;;;;;;;;27.15;38.66;100504.87;1735490;80;23377;-40
2021/08/03 12:10:18;;;;;;;;;;;;;;;27.18;38.66;100507.50;1749485;80;20207;-41
2021/08/03 12:12:45;;;;;;;;;;;;;;;27.21;38.75;100503.96;1749182;80;20137;-39
2021/08/03 12:15:13;;;;;;;;;;;;;;;27.28;38.79;100494.92;1747068;80;20548;-40
2021/08/03 12:17:39;;;;;;;;;;;;;;;27.33;38.83;100495.41;1747085;80;20190;-40
2021/08/03 12:20:23;;;;;;;;;;;;;;;27.40;38.87;100493.35;1747794;80;23265;-39
2021/08/03 12:22:49;;;;;;;;;;;;;;;27.47;38.90;100493.47;1675124;80;20382;-40
2021/08/03 12:25:15;;;;;;;;;;;;;;;27.52;38.90;100492.61;1752450;80;20159;-40
2021/08/03 12:27:42;;;;;;;;;;;;;;;27.57;38.91;100485.32;1718596;81;20813;-40
2021/08/03 12:30:29;;;;;;;;;;;;;;;27.61;38.94;100484.79;1747935;80;20414;-40
2021/08/03 12:32:55;;;;;;;;;;;;;;;27.65;38.95;100489.84;1738399;80;21177;-40
2021/08/03 12:35:21;;;;;;;;;;;;;;;27.69;38.99;100485.71;1711823;82;20225;-39
2021/08/03 12:37:47;;;;;;;;;;;;;;;27.73;39.02;100496.36;1707301;82;20220;-39
2021/08/03 12:40:30;;;;;;;;;;;;;;;27.77;39.03;100488.84;1708254;82;20158;-40
2021/08/03 12:42:58;;;;;;;;;;;;;;;27.82;39.04;100486.32;1716921;82;20451;-40